Time;durP1;ratioP1;P1;durP2;ratioP2;P2;SDS_P1;SDS_P2;PMS_P1;PMS_P2;Temp;Humidity;BMP_temperature;BMP_pressure;BME280_temperature;BME280_humidity;BME280_pressure;Samples;Min_cycle;Max_cycle;Signal;HPM_P1;HPM_P2
2021/06/08 00:02:18;;;;;;;7.22;5.88;;;;;;;17.01;65.62;101275.25;3514251;40;20278;-55
2021/06/08 00:04:45;;;;;;;6.93;6.28;;;;;;;16.91;65.84;101283.75;3514728;40;20332;-55
2021/06/08 00:07:12;;;;;;;7.25;6.65;;;;;;;16.92;66.13;101282.91;3514087;40;20075;-58
2021/06/08 00:09:40;;;;;;;6.70;6.15;;;;;;;16.54;67.35;101278.19;3514322;40;20048;-56
2021/06/08 00:12:07;;;;;;;6.97;6.30;;;;;;;16.41;67.86;101283.22;3513582;40;20059;-55
2021/06/08 00:14:35;;;;;;;9.40;6.05;;;;;;;16.25;68.66;101285.63;3514085;40;20052;-54
2021/06/08 00:17:02;;;;;;;6.97;6.28;;;;;;;16.16;68.82;101285.50;3515202;40;20510;-56
2021/06/08 00:19:29;;;;;;;7.10;6.43;;;;;;;16.23;68.18;101283.88;3513899;40;20127;-58
2021/06/08 00:21:56;;;;;;;6.80;6.20;;;;;;;16.47;66.96;101291.91;3514300;40;20056;-55
2021/06/08 00:24:23;;;;;;;6.55;5.95;;;;;;;16.31;66.99;101284.81;3513887;40;20103;-54
2021/06/08 00:26:50;;;;;;;7.20;5.97;;;;;;;16.75;65.16;101292.22;3514357;40;20100;-56
2021/06/08 00:29:18;;;;;;;7.55;6.28;;;;;;;16.45;66.79;101282.38;3514383;40;20056;-58
2021/06/08 00:31:45;;;;;;;8.02;6.57;;;;;;;16.66;65.75;101286.94;3514318;40;20099;-54
2021/06/08 00:34:12;;;;;;;6.68;5.97;;;;;;;16.70;65.83;101288.69;3513990;40;20161;-57
2021/06/08 00:36:39;;;;;;;6.80;6.20;;;;;;;16.70;65.81;101289.56;3514153;40;20119;-57
2021/06/08 00:39:06;;;;;;;7.50;6.70;;;;;;;16.37;67.07;101295.25;3513897;40;20341;-59
2021/06/08 00:41:39;;;;;;;7.60;6.90;;;;;;;16.52;67.57;101303.16;3513628;40;20059;-59
2021/06/08 00:44:14;;;;;;;6.78;6.18;;;;;;;16.13;68.35;101297.50;3514468;40;20047;-56
2021/06/08 00:46:43;;;;;;;7.85;7.05;;;;;;;15.73;70.34;101309.91;3514378;40;20147;-54
2021/06/08 00:49:11;;;;;;;7.80;7.07;;;;;;;15.65;69.99;101296.88;3516936;40;20405;-56
2021/06/08 00:51:38;;;;;;;6.47;5.97;;;;;;;15.46;70.64;101303.44;3514269;40;20067;-56
2021/06/08 00:54:06;;;;;;;7.32;6.22;;;;;;;15.44;70.32;101306.88;3513856;40;20099;-55
2021/06/08 00:56:34;;;;;;;7.60;6.40;;;;;;;15.56;69.95;101298.41;3513782;40;20076;-56
2021/06/08 00:59:01;;;;;;;7.60;6.82;;;;;;;15.26;70.78;101303.13;3514577;40;20421;-53
2021/06/08 01:01:29;;;;;;;6.95;6.35;;;;;;;15.24;71.19;101298.78;3513774;40;20382;-53
2021/06/08 01:03:56;;;;;;;7.20;6.35;;;;;;;15.20;71.44;101291.81;3514271;40;20611;-54
2021/06/08 01:06:23;;;;;;;8.38;6.93;;;;;;;15.24;71.02;101303.94;3513257;40;20078;-57
2021/06/08 01:08:50;;;;;;;9.98;6.47;;;;;;;15.64;70.33;101296.84;3514445;40;20060;-56
2021/06/08 01:11:17;;;;;;;7.70;6.70;;;;;;;15.77;69.34;101299.63;3513467;40;20088;-57
2021/06/08 01:13:45;;;;;;;7.10;6.35;;;;;;;15.47;69.93;101297.44;3514161;40;20055;-57
2021/06/08 01:16:12;;;;;;;7.15;6.53;;;;;;;15.52;69.79;101293.19;3514478;40;20058;-59
2021/06/08 01:18:39;;;;;;;7.97;7.00;;;;;;;15.33;71.10;101290.31;3517659;40;20106;-53
2021/06/08 01:21:08;;;;;;;7.45;6.70;;;;;;;15.28;70.82;101287.66;3513883;40;20095;-57
2021/06/08 01:23:36;;;;;;;7.10;6.50;;;;;;;15.21;72.09;101291.88;3513722;40;20100;-57
2021/06/08 01:26:04;;;;;;;8.45;7.35;;;;;;;15.17;72.02;101290.09;3514426;40;20454;-56
2021/06/08 01:28:33;;;;;;;7.68;6.97;;;;;;;15.32;72.11;101286.00;3513334;40;20103;-59
2021/06/08 01:31:08;;;;;;;7.78;7.07;;;;;;;15.39;71.00;101285.25;3514093;40;20063;-52
2021/06/08 01:33:39;;;;;;;7.80;6.70;;;;;;;15.16;72.09;101290.94;3513584;40;20071;-55
2021/06/08 01:36:11;;;;;;;8.05;7.35;;;;;;;14.91;74.18;101291.34;3514405;40;20088;-54
2021/06/08 01:38:41;;;;;;;8.52;7.75;;;;;;;15.09;73.58;101288.22;3513965;40;20055;-56
2021/06/08 01:41:10;;;;;;;7.78;7.05;;;;;;;15.43;71.88;101289.63;3514295;40;20044;-53
2021/06/08 01:43:40;;;;;;;8.40;7.60;;;;;;;15.27;72.37;101281.63;3513931;40;20055;-57
2021/06/08 01:46:09;;;;;;;8.98;8.10;;;;;;;15.05;73.16;101287.28;3513688;40;20055;-55
2021/06/08 01:48:36;;;;;;;8.13;7.43;;;;;;;14.81;74.71;101289.44;3513832;40;20040;-59
2021/06/08 01:51:31;;;;;;;7.65;7.05;;;;;;;14.84;74.39;101285.22;3514417;40;20050;-56
2021/06/08 01:54:21;;;;;;;8.45;7.63;;;;;;;14.73;74.84;101276.41;3513891;40;20055;-52
2021/06/08 01:57:14;;;;;;;10.15;8.95;;;;;;;14.64;76.45;101278.81;3513902;40;20096;-59
2021/06/08 01:59:59;;;;;;;8.98;8.10;;;;;;;14.73;75.68;101281.56;3529261;40;20451;-58
2021/06/08 02:02:36;;;;;;;8.27;7.57;;;;;;;14.69;75.93;101275.47;3513718;40;20095;-56
2021/06/08 02:05:38;;;;;;;9.75;8.75;;;;;;;14.62;77.22;101280.50;3521631;40;20375;-56
2021/06/08 02:08:40;;;;;;;9.30;8.40;;;;;;;14.69;76.64;101280.63;3513817;40;20051;-55
2021/06/08 02:11:25;;;;;;;9.73;8.15;;;;;;;14.98;75.47;101280.31;3514012;40;20251;-57
2021/06/08 02:14:03;;;;;;;12.02;8.02;;;;;;;14.76;76.33;101281.63;3513538;40;20054;-56
2021/06/08 02:16:43;;;;;;;9.20;8.30;;;;;;;14.63;77.29;101285.69;3513323;40;20730;-56
2021/06/08 02:19:12;;;;;;;9.55;8.20;;;;;;;14.62;77.83;101280.50;3515526;40;20051;-53
2021/06/08 02:21:44;;;;;;;10.50;9.40;;;;;;;14.59;77.87;101285.59;3513493;40;20057;-58
2021/06/08 02:24:16;;;;;;;9.65;8.52;;;;;;;14.66;77.98;101282.31;3515912;40;23771;-58
2021/06/08 02:26:45;;;;;;;11.50;9.57;;;;;;;14.55;78.51;101288.94;3513859;40;20107;-55
2021/06/08 02:29:14;;;;;;;9.85;8.95;;;;;;;14.46;79.20;101279.31;3513469;40;20064;-55
2021/06/08 02:31:43;;;;;;;10.13;9.23;;;;;;;14.45;79.48;101283.59;3513429;40;20079;-59
2021/06/08 02:34:12;;;;;;;10.82;9.63;;;;;;;14.48;79.42;101278.53;3515434;40;20107;-56
2021/06/08 02:36:42;;;;;;;10.75;9.00;;;;;;;14.46;79.79;101280.16;3513388;40;20344;-56
2021/06/08 02:44:27;;;;;;;10.98;9.85;;;;;;;14.62;79.41;101289.13;3565959;40;20092;-57
2021/06/08 02:46:55;;;;;;;10.27;9.25;;;;;;;14.66;79.18;101293.47;3566065;40;20146;-57
2021/06/08 02:49:24;;;;;;;10.63;9.55;;;;;;;15.00;77.83;101287.22;3565202;40;20135;-60
2021/06/08 02:51:52;;;;;;;13.95;10.00;;;;;;;14.63;79.27;101287.41;3566453;40;20077;-57
2021/06/08 02:54:20;;;;;;;11.27;9.60;;;;;;;14.65;79.42;101286.59;3565299;40;20104;-58
2021/06/08 02:56:49;;;;;;;11.80;10.55;;;;;;;14.63;80.11;101293.41;3566557;40;20560;-54
2021/06/08 02:59:16;;;;;;;10.43;9.35;;;;;;;14.51;80.70;101283.75;3565373;40;20093;-56
2021/06/08 03:01:49;;;;;;;14.35;10.85;;;;;;;14.44;81.71;101289.59;3566142;40;20284;-57
2021/06/08 03:04:21;;;;;;;12.38;11.07;;;;;;;14.50;81.67;101287.16;3565502;40;20097;-55
2021/06/08 03:06:54;;;;;;;12.15;10.10;;;;;;;14.71;80.73;101293.56;3566349;40;20438;-57
2021/06/08 03:09:52;;;;;;;15.05;10.82;;;;;;;14.75;81.15;101296.22;3565785;40;20125;-59
2021/06/08 03:12:33;;;;;;;12.32;11.13;;;;;;;14.61;81.17;101299.41;3564284;40;20604;-56
2021/06/08 03:15:03;;;;;;;12.23;11.02;;;;;;;14.54;81.59;101297.53;3565493;40;20041;-56
2021/06/08 03:17:32;;;;;;;11.15;9.98;;;;;;;14.60;81.04;101297.63;3565301;40;20052;-54
2021/06/08 03:20:11;;;;;;;11.43;9.80;;;;;;;14.64;79.65;101305.47;3565692;40;20100;-59
2021/06/08 03:22:46;;;;;;;11.25;9.82;;;;;;;14.58;80.09;101300.19;3565596;40;20093;-57
2021/06/08 03:25:17;;;;;;;10.20;9.15;;;;;;;14.58;79.54;101302.78;3567155;40;20108;-58
2021/06/08 03:27:45;;;;;;;12.27;9.75;;;;;;;14.69;78.09;101302.97;3566093;40;20443;-57
2021/06/08 03:30:14;;;;;;;12.55;9.52;;;;;;;14.78;77.14;101313.44;3566494;40;20127;-58
2021/06/08 03:32:42;;;;;;;10.95;9.30;;;;;;;14.73;77.35;101310.78;3567067;40;20085;-57
2021/06/08 03:35:11;;;;;;;11.48;9.13;;;;;;;14.85;77.98;101311.88;3568334;40;20037;-54
2021/06/08 03:37:40;;;;;;;10.55;9.20;;;;;;;14.80;78.84;101309.22;3566872;40;20081;-55
2021/06/08 03:40:08;;;;;;;12.90;9.32;;;;;;;14.92;78.51;101311.13;3568297;40;20081;-57
2021/06/08 03:42:36;;;;;;;11.57;9.18;;;;;;;14.99;78.05;101319.00;3566491;40;20093;-56
2021/06/08 03:45:04;;;;;;;12.02;9.52;;;;;;;14.96;78.73;101323.25;3567071;40;20073;-56
2021/06/08 03:47:31;;;;;;;10.57;9.57;;;;;;;14.91;78.81;101322.28;3566259;40;20089;-57
2021/06/08 03:49:58;;;;;;;12.88;9.27;;;;;;;14.92;79.12;101319.72;3566822;40;20564;-56
2021/06/08 03:52:26;;;;;;;10.77;9.20;;;;;;;14.90;79.02;101316.25;3566235;40;20688;-56
2021/06/08 03:54:53;;;;;;;10.55;9.45;;;;;;;14.95;79.57;101316.34;3567292;40;20085;-57
2021/06/08 03:57:27;;;;;;;9.15;8.35;;;;;;;15.03;78.55;101317.34;3566545;40;20089;-59
2021/06/08 03:59:56;;;;;;;10.35;8.65;;;;;;;15.00;78.89;101318.16;3566963;40;20040;-55
2021/06/08 04:02:23;;;;;;;12.85;9.98;;;;;;;15.06;78.41;101319.09;3566149;40;20053;-59
2021/06/08 04:04:50;;;;;;;10.60;8.52;;;;;;;15.14;78.15;101315.81;3567803;40;20100;-55
2021/06/08 04:07:19;;;;;;;12.38;9.70;;;;;;;15.15;78.86;101309.81;3566462;40;20090;-58
2021/06/08 04:09:49;;;;;;;10.25;8.85;;;;;;;15.25;77.87;101313.41;3567326;40;20053;-54
2021/06/08 04:12:22;;;;;;;11.18;9.02;;;;;;;15.34;78.00;101312.69;3565671;40;20090;-59
2021/06/08 04:14:50;;;;;;;13.23;10.15;;;;;;;15.35;78.12;101310.16;3567229;40;20077;-59
2021/06/08 04:17:17;;;;;;;11.98;9.82;;;;;;;15.39;78.85;101316.22;3566345;40;20095;-56
2021/06/08 04:19:45;;;;;;;12.23;10.48;;;;;;;15.49;78.68;101321.56;3568415;40;20176;-55
2021/06/08 04:22:25;;;;;;;15.75;9.95;;;;;;;15.81;77.44;101315.16;3565764;40;20846;-56
2021/06/08 04:24:52;;;;;;;15.05;9.95;;;;;;;16.37;74.23;101321.09;3566239;40;20104;-54
2021/06/08 04:27:27;;;;;;;11.00;9.88;;;;;;;15.92;76.56;101318.78;3566391;40;20479;-56
2021/06/08 04:29:54;;;;;;;17.30;10.65;;;;;;;15.92;77.05;101314.47;3566324;40;20085;-56
2021/06/08 04:32:22;;;;;;;12.13;9.48;;;;;;;15.94;76.82;101315.34;3566091;40;20065;-55
2021/06/08 04:34:54;;;;;;;13.05;9.43;;;;;;;16.17;76.72;101319.97;3567347;40;20116;-56
2021/06/08 04:37:21;;;;;;;11.20;9.88;;;;;;;16.06;76.44;101318.97;3566234;40;20140;-56
2021/06/08 04:39:51;;;;;;;10.30;9.30;;;;;;;16.27;75.88;101320.13;3566593;40;20342;-56
2021/06/08 04:42:19;;;;;;;11.82;10.20;;;;;;;16.37;76.02;101323.69;3565904;40;20053;-58
2021/06/08 04:44:51;;;;;;;12.73;9.43;;;;;;;16.41;76.01;101325.44;3567155;40;20089;-57
2021/06/08 04:47:20;;;;;;;9.63;8.57;;;;;;;16.85;72.66;101329.41;3565988;40;20105;-59
2021/06/08 04:49:48;;;;;;;12.05;8.88;;;;;;;16.79;73.77;101336.25;3566624;40;21294;-53
2021/06/08 04:52:15;;;;;;;10.00;9.00;;;;;;;17.07;73.22;101338.25;3565713;40;20056;-50
2021/06/08 04:54:43;;;;;;;14.23;8.95;;;;;;;17.18;72.48;101340.06;3568689;40;20097;-51
2021/06/08 04:57:12;;;;;;;9.45;8.52;;;;;;;17.51;71.51;101339.47;3569328;40;20063;-54
2021/06/08 05:00:03;;;;;;;8.55;7.53;;;;;;;17.66;68.49;101328.38;3573646;40;20089;-53
2021/06/08 05:02:48;;;;;;;8.77;7.80;;;;;;;18.00;68.42;101336.38;3570355;40;20061;-52
2021/06/08 05:05:29;;;;;;;10.48;8.38;;;;;;;17.97;66.50;101339.81;3569536;40;20458;-56
2021/06/08 05:08:31;;;;;;;8.60;7.70;;;;;;;18.23;67.07;101345.16;3568426;40;20053;-52
2021/06/08 05:11:06;;;;;;;8.60;7.72;;;;;;;18.40;66.63;101350.41;3559313;40;20461;-53
2021/06/08 05:13:35;;;;;;;8.85;7.43;;;;;;;18.88;62.10;101353.19;3565673;40;20078;-50
2021/06/08 05:16:03;;;;;;;7.78;6.97;;;;;;;19.25;61.90;101352.38;3568860;40;20091;-53
2021/06/08 05:18:33;;;;;;;8.48;7.68;;;;;;;19.54;60.73;101352.34;3568092;40;20061;-51
2021/06/08 05:21:01;;;;;;;10.93;8.15;;;;;;;19.76;58.87;101353.22;3569058;40;20044;-50
2021/06/08 05:23:29;;;;;;;29.33;10.38;;;;;;;19.77;60.94;101354.09;3567540;40;20050;-56
2021/06/08 05:25:56;;;;;;;9.95;8.90;;;;;;;19.86;59.69;101350.63;3569053;40;20057;-55
2021/06/08 05:28:24;;;;;;;17.48;8.85;;;;;;;19.72;60.42;101354.09;3567453;40;20441;-53
2021/06/08 05:30:52;;;;;;;8.85;7.80;;;;;;;19.55;59.36;101348.91;3569499;40;20037;-52
2021/06/08 05:33:21;;;;;;;16.80;9.52;;;;;;;19.95;59.31;101343.66;3567601;40;20058;-50
2021/06/08 05:35:55;;;;;;;10.23;8.30;;;;;;;19.51;60.87;101347.19;3569200;40;20748;-51
2021/06/08 05:38:36;;;;;;;14.52;8.55;;;;;;;19.77;61.89;101354.09;3567957;40;20348;-54
2021/06/08 05:41:09;;;;;;;18.77;8.13;;;;;;;19.69;61.22;101350.63;3568387;40;20115;-53
2021/06/08 05:43:40;;;;;;;10.55;7.97;;;;;;;19.74;61.31;101356.72;3568109;40;20116;-55
2021/06/08 05:46:09;;;;;;;9.20;7.68;;;;;;;19.68;61.52;101354.09;3568243;40;20085;-50
2021/06/08 05:48:37;;;;;;;10.93;8.45;;;;;;;19.93;61.31;101355.81;3560907;40;20090;-54
2021/06/08 05:51:07;;;;;;;9.70;8.02;;;;;;;20.22;61.91;101354.84;3568308;40;20049;-53
2021/06/08 05:53:38;;;;;;;7.93;7.18;;;;;;;20.30;60.60;101364.38;3567588;40;20097;-55
2021/06/08 05:56:09;;;;;;;8.90;7.93;;;;;;;20.16;62.27;101355.75;3569043;40;20439;-53
2021/06/08 05:58:40;;;;;;;10.40;7.80;;;;;;;20.52;62.57;101360.00;3572866;40;20130;-54
2021/06/08 06:01:11;;;;;;;11.13;8.15;;;;;;;20.55;59.45;101359.09;3572384;40;20049;-54
2021/06/08 06:03:40;;;;;;;12.57;8.25;;;;;;;20.81;63.42;101359.81;3572738;40;20105;-51
2021/06/08 06:06:08;;;;;;;10.30;7.78;;;;;;;20.79;59.15;101361.56;3572731;40;20111;-53
2021/06/08 06:08:35;;;;;;;14.02;7.97;;;;;;;20.84;59.03;101370.22;3572816;40;20545;-54
2021/06/08 06:11:05;;;;;;;10.20;7.82;;;;;;;20.93;60.36;101364.06;3572235;40;20559;-55
2021/06/08 06:13:37;;;;;;;7.95;7.05;;;;;;;21.15;59.63;101369.16;3572554;40;20044;-54
2021/06/08 06:16:06;;;;;;;10.40;7.70;;;;;;;20.97;61.18;101367.53;3572422;40;20084;-52
2021/06/08 06:18:33;;;;;;;9.68;7.75;;;;;;;21.10;59.36;101369.19;3572661;40;20703;-54
2021/06/08 06:21:01;;;;;;;8.52;7.65;;;;;;;21.21;57.99;101374.31;3572229;40;20053;-53
2021/06/08 06:23:29;;;;;;;9.20;7.50;;;;;;;21.47;60.01;101377.63;3572760;40;20033;-59
2021/06/08 06:25:58;;;;;;;8.00;7.20;;;;;;;21.61;58.62;101373.16;3572763;40;20056;-55
2021/06/08 06:28:26;;;;;;;9.20;7.55;;;;;;;21.50;58.59;101367.19;3570996;40;20158;-50
2021/06/08 06:30:54;;;;;;;8.25;7.45;;;;;;;21.88;58.18;101370.31;3569345;40;20067;-55
2021/06/08 06:33:23;;;;;;;10.50;7.88;;;;;;;21.74;57.89;101370.44;3567951;40;20089;-53
2021/06/08 06:35:50;;;;;;;8.15;7.38;;;;;;;22.03;57.38;101373.59;3567848;40;20053;-53
2021/06/08 06:38:19;;;;;;;8.43;7.57;;;;;;;21.94;57.61;101375.44;3568732;40;20048;-55
2021/06/08 06:40:48;;;;;;;8.93;8.07;;;;;;;22.16;56.70;101365.69;3571172;40;20085;-52
2021/06/08 06:43:20;;;;;;;8.02;7.15;;;;;;;22.16;57.72;101378.72;3570759;40;20069;-53
2021/06/08 06:45:51;;;;;;;8.32;7.15;;;;;;;22.25;57.62;101378.63;3568341;40;20081;-50
2021/06/08 06:48:19;;;;;;;9.50;7.03;;;;;;;22.42;56.54;101378.41;3567285;40;20053;-51
2021/06/08 06:50:47;;;;;;;10.10;7.82;;;;;;;22.51;56.46;101376.56;3569750;40;20071;-54
2021/06/08 06:53:19;;;;;;;7.95;7.07;;;;;;;22.53;55.75;101379.16;3571092;40;20049;-53
2021/06/08 06:55:53;;;;;;;9.63;7.53;;;;;;;22.76;56.07;101371.00;3569312;40;20092;-55
2021/06/08 06:58:21;;;;;;;8.50;6.72;;;;;;;23.20;55.41;101382.56;3566750;40;20357;-52
2021/06/08 07:00:51;;;;;;;8.07;7.05;;;;;;;22.95;57.05;101382.94;3568075;40;20047;-50
2021/06/08 07:03:24;;;;;;;8.55;6.80;;;;;;;23.25;53.39;101385.97;3567386;40;20101;-51
2021/06/08 07:05:52;;;;;;;7.82;7.07;;;;;;;23.36;53.99;101384.94;3571393;40;20049;-56
2021/06/08 07:08:23;;;;;;;7.50;6.57;;;;;;;23.49;54.28;101380.38;3568603;40;20045;-52
2021/06/08 07:10:52;;;;;;;10.45;6.95;;;;;;;23.49;51.48;101379.50;3570013;40;20116;-52
2021/06/08 07:13:20;;;;;;;7.10;6.47;;;;;;;23.59;52.57;101375.84;3568415;40;20073;-55
2021/06/08 07:15:49;;;;;;;9.60;6.30;;;;;;;24.07;52.19;101375.88;3569501;40;20414;-55
2021/06/08 07:18:17;;;;;;;6.60;6.10;;;;;;;24.32;52.40;101384.13;3573626;40;20241;-56
2021/06/08 07:20:45;;;;;;;7.05;6.38;;;;;;;24.55;52.94;101379.28;3571550;40;20113;-56
2021/06/08 07:23:16;;;;;;;10.68;6.40;;;;;;;24.79;49.47;101383.13;3568726;40;20085;-52
2021/06/08 07:25:44;;;;;;;11.10;6.82;;;;;;;24.45;49.03;101382.13;3569079;40;20109;-52
2021/06/08 07:28:12;;;;;;;7.00;6.40;;;;;;;24.91;48.74;101384.59;3569309;40;20065;-51
2021/06/08 07:30:41;;;;;;;8.02;6.35;;;;;;;24.90;49.64;101377.63;3572695;40;20065;-54
2021/06/08 07:33:29;;;;;;;7.05;6.45;;;;;;;25.00;48.95;101384.38;3575601;40;20064;-53
2021/06/08 07:36:09;;;;;;;8.27;7.28;;;;;;;25.26;48.10;101386.44;3569601;40;20080;-54
2021/06/08 07:39:00;;;;;;;7.53;6.80;;;;;;;25.33;46.94;101380.16;3568496;40;20140;-54
2021/06/08 07:41:45;;;;;;;6.65;6.10;;;;;;;25.74;46.18;101387.84;3567926;40;20422;-55
2021/06/08 07:44:16;;;;;;;10.20;6.60;;;;;;;25.98;45.90;101384.63;3569942;40;20130;-53
2021/06/08 07:46:45;;;;;;;8.40;6.80;;;;;;;25.92;45.25;101386.53;3568569;40;20054;-57
2021/06/08 07:49:14;;;;;;;7.38;6.05;;;;;;;26.02;44.05;101377.50;3568149;40;20057;-53
2021/06/08 07:51:42;;;;;;;5.55;5.05;;;;;;;26.28;41.77;101384.66;3570928;40;20057;-55
2021/06/08 07:54:11;;;;;;;5.57;5.07;;;;;;;25.98;43.87;101378.53;3570483;40;20060;-56
2021/06/08 07:56:39;;;;;;;6.65;5.82;;;;;;;26.68;43.02;101373.88;3574333;40;20384;-52
2021/06/08 07:59:09;;;;;;;6.40;5.90;;;;;;;26.47;42.87;101382.41;3572349;40;20053;-58
2021/06/08 08:01:41;;;;;;;7.47;6.05;;;;;;;26.80;42.00;101388.41;3569473;40;20046;-55
2021/06/08 08:04:11;;;;;;;6.28;5.10;;;;;;;27.12;40.90;101385.66;3568109;40;20053;-55
2021/06/08 08:06:39;;;;;;;8.20;5.65;;;;;;;26.78;42.19;101379.72;3568936;40;20142;-54
2021/06/08 08:09:06;;;;;;;6.85;5.95;;;;;;;26.10;41.48;101380.78;3569396;40;20528;-55
2021/06/08 08:11:36;;;;;;;5.53;4.90;;;;;;;26.94;40.10;101385.34;3568578;40;20056;-52
2021/06/08 08:14:04;;;;;;;6.25;5.60;;;;;;;27.28;40.21;101379.91;3568961;40;20406;-55
2021/06/08 08:16:31;;;;;;;7.00;5.18;;;;;;;27.20;39.70;101382.78;3572080;40;20049;-54
2021/06/08 08:18:59;;;;;;;9.20;5.90;;;;;;;27.84;39.07;101380.66;3569669;40;20060;-55
2021/06/08 08:21:26;;;;;;;5.80;5.20;;;;;;;27.65;38.34;101383.03;3567803;40;20057;-57
2021/06/08 08:23:54;;;;;;;8.13;5.63;;;;;;;27.26;39.77;101386.97;3569516;40;20437;-55
2021/06/08 08:26:21;;;;;;;7.95;5.43;;;;;;;27.23;39.42;101381.84;3568333;40;20081;-57
2021/06/08 08:28:49;;;;;;;7.90;5.60;;;;;;;26.73;37.99;101377.22;3569957;40;20053;-52
2021/06/08 08:31:19;;;;;;;6.38;5.00;;;;;;;27.07;38.86;101386.69;3571157;40;20112;-55
2021/06/08 08:33:46;;;;;;;6.07;5.38;;;;;;;28.02;36.79;101383.53;3570963;40;20538;-53
2021/06/08 08:36:14;;;;;;;6.90;6.20;;;;;;;27.17;38.00;101381.09;3573194;40;20099;-52
2021/06/08 08:38:43;;;;;;;6.22;5.10;;;;;;;27.57;37.39;101379.78;3580180;40;20080;-52
2021/06/08 08:41:11;;;;;;;5.80;5.20;;;;;;;26.98;37.92;101382.56;3577456;40;20095;-53
2021/06/08 08:43:47;;;;;;;6.40;5.25;;;;;;;26.36;40.60;101382.69;3580893;40;20067;-52
2021/06/08 08:46:15;;;;;;;6.25;5.72;;;;;;;26.80;39.67;101377.88;3580265;40;20092;-53
2021/06/08 08:48:43;;;;;;;7.30;5.35;;;;;;;26.31;40.11;101377.56;3580650;40;20048;-55
2021/06/08 08:51:12;;;;;;;5.55;5.00;;;;;;;26.94;38.75;101382.72;3577854;40;20104;-55
2021/06/08 08:53:40;;;;;;;4.47;4.07;;;;;;;27.10;35.13;101370.84;3573482;40;20089;-57
2021/06/08 08:56:24;;;;;;;5.13;4.00;;;;;;;27.49;35.53;101371.28;3571668;40;20189;-60
2021/06/08 08:58:52;;;;;;;6.85;4.68;;;;;;;27.22;35.58;101374.84;3570507;40;20089;-57
2021/06/08 09:01:19;;;;;;;6.78;4.32;;;;;;;27.11;36.69;101380.44;3568685;40;20097;-59
2021/06/08 09:03:47;;;;;;;6.60;4.55;;;;;;;27.71;35.34;101373.19;3572785;40;20049;-54
2021/06/08 09:06:16;;;;;;;5.43;4.50;;;;;;;27.65;34.44;101367.22;3572109;40;20056;-55
2021/06/08 09:08:43;;;;;;;5.13;4.72;;;;;;;27.52;35.51;101368.56;3573462;40;20679;-60
2021/06/08 09:11:11;;;;;;;6.85;4.93;;;;;;;27.46;35.88;101367.94;3573143;40;20081;-57
2021/06/08 09:13:40;;;;;;;5.35;4.80;;;;;;;27.70;37.62;101369.72;3573696;40;20918;-56
2021/06/08 09:16:09;;;;;;;7.35;4.78;;;;;;;27.31;35.46;101370.13;3573590;40;20045;-57
2021/06/08 09:18:37;;;;;;;6.15;4.57;;;;;;;28.05;36.48;101365.84;3573014;40;20053;-56
2021/06/08 09:21:20;;;;;;;4.88;4.53;;;;;;;27.72;34.32;101369.69;3573027;40;20047;-51
2021/06/08 09:23:48;;;;;;;5.53;4.35;;;;;;;28.04;34.18;101366.75;3576735;40;20101;-55
2021/06/08 09:26:17;;;;;;;7.13;4.78;;;;;;;28.66;33.94;101375.91;3578431;40;20894;-52
2021/06/08 09:28:46;;;;;;;6.72;5.03;;;;;;;28.08;34.12;101368.38;3576939;40;20053;-54
2021/06/08 09:31:21;;;;;;;6.95;4.68;;;;;;;28.71;32.18;101367.81;3577610;40;20399;-55
2021/06/08 09:33:51;;;;;;;5.20;4.70;;;;;;;29.46;31.91;101370.06;3577454;40;20485;-55
2021/06/08 09:36:23;;;;;;;10.45;5.50;;;;;;;29.35;32.37;101368.72;3578873;40;20051;-55
2021/06/08 09:38:50;;;;;;;11.73;4.80;;;;;;;29.76;30.90;101367.91;3577690;40;20056;-51
2021/06/08 09:41:20;;;;;;;8.77;5.38;;;;;;;28.89;32.34;101357.41;3578367;40;20060;-56
2021/06/08 09:43:53;;;;;;;6.95;5.55;;;;;;;28.91;33.24;101359.97;3577058;40;20106;-50
2021/06/08 09:46:20;;;;;;;8.20;5.30;;;;;;;28.74;32.94;101355.34;3578445;40;20065;-53
2021/06/08 09:48:58;;;;;;;5.95;5.13;;;;;;;30.12;31.84;101360.13;3577408;40;20088;-56
2021/06/08 09:51:44;;;;;;;8.13;5.32;;;;;;;30.38;32.38;101364.25;3569927;40;20088;-52
2021/06/08 09:54:28;;;;;;;8.93;5.53;;;;;;;30.58;30.48;101361.53;3576788;40;20057;-52
2021/06/08 09:57:32;;;;;;;5.80;5.10;;;;;;;30.18;30.45;101359.88;3576156;40;20049;-54
2021/06/08 10:00:08;;;;;;;8.07;5.07;;;;;;;30.86;32.02;101368.16;3577711;40;20084;-52
2021/06/08 10:02:55;;;;;;;5.70;5.18;;;;;;;31.19;31.63;101369.16;3576232;40;20734;-53
2021/06/08 10:05:29;;;;;;;7.43;5.25;;;;;;;31.58;29.94;101370.75;3578049;40;20063;-55
2021/06/08 10:08:00;;;;;;;5.45;4.93;;;;;;;31.04;29.38;101371.72;3576396;40;20430;-54
2021/06/08 10:10:44;;;;;;;6.07;5.53;;;;;;;30.38;31.36;101370.41;3576934;40;20045;-53
2021/06/08 10:13:19;;;;;;;7.00;5.43;;;;;;;31.12;29.63;101372.19;3573344;40;20069;-52
2021/06/08 10:15:53;;;;;;;8.85;5.80;;;;;;;34.49;25.21;101386.00;3572255;40;20049;-55
2021/06/08 10:18:20;;;;;;;9.55;5.32;;;;;;;33.55;26.51;101372.25;3570417;40;20089;-52
2021/06/08 10:20:52;;;;;;;6.70;5.03;;;;;;;32.55;27.55;101368.31;3571894;40;20084;-54
2021/06/08 10:23:19;;;;;;;6.28;4.95;;;;;;;32.53;28.14;101364.88;3570283;40;20508;-57
2021/06/08 10:25:48;;;;;;;8.88;5.43;;;;;;;32.46;26.95;101369.66;3568729;40;20423;-53
2021/06/08 10:28:19;;;;;;;5.40;4.88;;;;;;;32.92;26.92;101367.97;3568655;40;20112;-52
2021/06/08 10:30:48;;;;;;;7.38;4.85;;;;;;;32.80;27.77;101362.47;3568328;40;20097;-53
2021/06/08 10:33:33;;;;;;;8.90;5.55;;;;;;;32.12;29.53;101370.59;3566842;40;20135;-53
2021/06/08 10:36:11;;;;;;;5.55;5.00;;;;;;;33.73;26.71;101375.59;3568987;40;20056;-56
2021/06/08 10:38:38;;;;;;;9.80;5.40;;;;;;;31.76;28.64;101365.44;3566881;40;20097;-54
2021/06/08 10:41:05;;;;;;;7.35;5.40;;;;;;;33.45;26.77;101371.09;3571354;40;20049;-53
2021/06/08 10:43:37;;;;;;;6.63;6.03;;;;;;;33.14;26.20;101366.69;3569238;40;20104;-53
2021/06/08 10:46:04;;;;;;;5.03;4.60;;;;;;;35.86;22.92;101370.63;3569420;40;20057;-52
2021/06/08 10:48:39;;;;;;;7.25;5.15;;;;;;;35.10;24.04;101371.38;3571046;40;20056;-55
2021/06/08 10:51:13;;;;;;;7.75;5.63;;;;;;;36.45;22.99;101368.22;3570805;40;20406;-50
2021/06/08 10:54:18;;;;;;;6.75;5.07;;;;;;;38.25;20.84;101375.97;3573947;40;20084;-52
2021/06/08 10:57:02;;;;;;;7.75;4.95;;;;;;;38.79;20.17;101380.53;3554997;40;20052;-54
2021/06/08 10:59:37;;;;;;;6.60;5.53;;;;;;;37.69;20.59;101369.59;3567119;40;20049;-52
2021/06/08 11:02:06;;;;;;;5.80;5.30;;;;;;;37.25;21.72;101361.47;3568926;40;20061;-53
2021/06/08 11:04:54;;;;;;;5.95;5.32;;;;;;;39.75;20.72;101379.53;3567257;40;20151;-50
2021/06/08 11:07:43;;;;;;;5.90;5.43;;;;;;;39.53;18.68;101370.66;3568716;40;20053;-52
2021/06/08 11:10:25;;;;;;;6.25;5.07;;;;;;;36.39;23.41;101362.47;3568316;40;20084;-51
2021/06/08 11:13:07;;;;;;;6.20;5.60;;;;;;;34.13;25.38;101346.59;3566393;40;20052;-54
2021/06/08 11:15:40;;;;;;;6.80;5.40;;;;;;;36.41;23.30;101363.19;3567754;40;20048;-54
2021/06/08 11:18:19;;;;;;;9.73;5.90;;;;;;;33.63;26.45;101356.72;3569386;40;20092;-49
2021/06/08 11:21:07;;;;;;;10.23;5.63;;;;;;;32.59;26.44;101349.47;3568592;40;20411;-51
2021/06/08 11:23:44;;;;;;;8.32;5.90;;;;;;;32.29;27.80;101351.13;3568081;40;20093;-54
2021/06/08 11:26:16;;;;;;;9.93;6.28;;;;;;;33.02;26.65;101357.66;3561557;40;20041;-53
2021/06/08 11:28:44;;;;;;;7.78;5.43;;;;;;;35.91;23.73;101354.28;3567756;40;20076;-52
2021/06/08 11:31:16;;;;;;;8.15;6.07;;;;;;;37.91;22.01;101358.09;3570892;40;20085;-57
2021/06/08 11:33:48;;;;;;;6.10;5.57;;;;;;;40.41;19.49;101361.19;3569890;40;20063;-52
2021/06/08 11:36:18;;;;;;;5.85;5.30;;;;;;;41.03;18.31;101356.44;3567151;40;20437;-56
2021/06/08 11:38:50;;;;;;;7.22;5.97;;;;;;;39.24;20.16;101350.84;3568078;40;20278;-54
2021/06/08 11:41:18;;;;;;;6.50;5.90;;;;;;;41.61;17.40;101359.06;3566828;40;20508;-52
2021/06/08 11:43:48;;;;;;;6.05;5.53;;;;;;;40.41;18.68;101355.81;3567919;40;20508;-55
2021/06/08 11:46:27;;;;;;;7.25;5.25;;;;;;;41.50;19.15;101356.53;3567354;40;20088;-56
2021/06/08 11:49:05;;;;;;;6.47;5.82;;;;;;;40.07;19.12;101348.03;3568772;40;20053;-57